Terminal Aerodrome Forecast
Issued by NWS

Home | Current Version | Previous Version | Text Only | Print | Product List | Glossary On
Versions: 1 2 3 4 5 6 7 8 9 10 11 12 13 14 15 16 17 18 19 20 21 22 23
000
FTUS44 KOUN 291127
TAFCSM
TAF
KCSM 291127Z 2912/3012 36005KT P6SM SKC
     FM292100 09008KT P6SM SCT080 SCT250 PROB30 3003/3009 4SM -TSRA
      BKN050CB=

USA.gov is the U.S. government's official web portal to all federal, state and local government web resources and services.